Time;durP1;ratioP1;P1;durP2;ratioP2;P2;SDS_P1;SDS_P2;PMS_P1;PMS_P2;Temp;Humidity;BMP_temperature;BMP_pressure;BME280_temperature;BME280_humidity;BME280_pressure;Samples;Min_cycle;Max_cycle;Signal;HPM_P1;HPM_P2
2021/08/03 00:04:20;;;;;;;3.40;2.60;;;23.80;92.50;;;;;;4955157;28;20061;-66
2021/08/03 00:07:11;;;;;;;5.40;2.90;;;23.70;92.80;;;;;;5002025;28;20991;-66
2021/08/03 00:09:39;;;;;;;3.78;3.28;;;23.70;92.80;;;;;;5016444;28;20053;-67
2021/08/03 00:12:07;;;;;;;3.25;2.63;;;23.70;92.20;;;;;;5026663;28;20410;-66
2021/08/03 00:14:33;;;;;;;6.18;3.13;;;23.70;91.60;;;;;;5019718;28;20038;-66
2021/08/03 00:16:59;;;;;;;8.10;2.90;;;23.70;92.00;;;;;;5009470;28;20097;-66
2021/08/03 00:19:26;;;;;;;4.47;3.70;;;23.70;91.90;;;;;;5012445;28;20045;-66
2021/08/03 00:21:52;;;;;;;2.83;2.53;;;23.60;91.70;;;;;;5004942;28;20518;-66
2021/08/03 00:24:23;;;;;;;4.20;2.97;;;23.50;92.10;;;;;;5002339;28;20117;-66
2021/08/03 00:26:49;;;;;;;3.95;2.65;;;23.60;92.00;;;;;;4994710;28;20564;-66
2021/08/03 00:29:15;;;;;;;6.25;3.17;;;23.60;91.80;;;;;;5010454;28;20042;-66
2021/08/03 00:31:42;;;;;;;6.38;3.17;;;23.60;91.50;;;;;;5025722;28;20049;-66
2021/08/03 00:34:07;;;;;;;3.63;2.75;;;23.40;91.20;;;;;;5016719;28;20037;-66
2021/08/03 00:36:40;;;;;;;3.00;2.67;;;23.40;91.70;;;;;;5020962;28;20052;-66
2021/08/03 00:39:40;;;;;;;6.95;2.97;;;23.30;92.50;;;;;;5018545;28;20045;-66
2021/08/03 00:42:06;;;;;;;7.03;3.50;;;23.20;93.20;;;;;;5000825;28;20046;-67
2021/08/03 00:44:43;;;;;;;5.43;3.22;;;23.10;93.70;;;;;;4996263;28;20076;-66
2021/08/03 00:47:10;;;;;;;5.18;3.10;;;23.00;94.50;;;;;;5022123;28;20052;-66
2021/08/03 00:49:37;;;;;;;4.10;2.97;;;22.80;94.90;;;;;;5026339;28;20522;-67
2021/08/03 00:52:04;;;;;;;3.45;2.97;;;22.80;94.50;;;;;;5015947;28;20034;-66
2021/08/03 00:55:10;;;;;;;4.85;3.00;;;22.90;94.70;;;;;;5021786;28;20037;-66
2021/08/03 00:57:37;;;;;;;3.97;2.53;;;23.10;94.80;;;;;;4996636;28;20091;-67
2021/08/03 01:00:03;;;;;;;3.55;2.78;;;23.10;94.40;;;;;;5012174;28;20048;-66
2021/08/03 01:02:29;;;;;;;4.18;2.42;;;23.00;93.70;;;;;;5015445;28;20388;-66
2021/08/03 01:04:58;;;;;;;4.13;2.22;;;23.00;93.50;;;;;;5029410;28;20042;-66
2021/08/03 01:08:00;;;;;;;4.72;2.70;;;22.90;93.70;;;;;;5024023;28;20491;-66
2021/08/03 01:10:42;;;;;;;5.07;2.70;;;23.00;93.90;;;;;;4974062;28;20045;-65
2021/08/03 01:13:16;;;;;;;5.32;2.75;;;23.00;93.80;;;;;;5015928;28;20038;-66
2021/08/03 01:15:48;;;;;;;5.10;2.80;;;23.10;94.10;;;;;;5025726;28;20177;-66
2021/08/03 01:18:44;;;;;;;7.50;3.30;;;23.10;94.00;;;;;;5022251;28;20115;-66
2021/08/03 01:21:16;;;;;;;6.22;3.42;;;23.10;95.40;;;;;;4997191;28;20040;-65
2021/08/03 01:24:06;;;;;;;9.18;3.28;;;22.90;96.20;;;;;;5018085;28;20480;-65
2021/08/03 01:27:01;;;;;;;6.43;4.25;;;22.90;96.60;;;;;;4994444;28;20084;-65
2021/08/03 01:32:49;;;;;;;7.93;3.50;;;22.70;97.50;;;;;;4982289;28;20091;-65
2021/08/03 01:35:17;;;;;;;6.93;3.83;;;22.70;97.30;;;;;;5024935;28;20057;-63
2021/08/03 01:37:47;;;;;;;7.20;4.55;;;22.50;98.40;;;;;;5029720;28;20041;-65
2021/08/03 01:40:13;;;;;;;8.55;3.80;;;22.50;99.40;;;;;;5025377;28;20107;-65
2021/08/03 01:42:43;;;;;;;5.63;4.03;;;22.50;99.30;;;;;;5007268;28;20461;-65
2021/08/03 01:45:12;;;;;;;7.72;4.03;;;22.50;99.90;;;;;;5017903;28;20033;-65
2021/08/03 01:47:38;;;;;;;5.88;4.03;;;22.50;99.90;;;;;;5027255;28;20037;-65
2021/08/03 01:50:09;;;;;;;5.65;4.57;;;22.50;99.80;;;;;;5024061;28;20060;-66
2021/08/03 01:52:36;;;;;;;6.63;3.97;;;22.50;99.90;;;;;;5018612;28;20395;-65
2021/08/03 01:55:03;;;;;;;4.70;3.92;;;22.50;99.90;;;;;;5019097;28;20517;-65
2021/08/03 02:07:35;;;;;;;4.70;3.65;;;22.10;99.90;;;;;;4963542;28;20048;-65
2021/08/03 02:10:03;;;;;;;3.75;3.45;;;22.20;99.90;;;;;;5009006;28;20041;-66
2021/08/03 02:12:32;;;;;;;5.47;3.53;;;22.30;99.90;;;;;;5013746;28;20052;-65
2021/08/03 02:14:59;;;;;;;4.90;3.15;;;22.20;99.90;;;;;;5020636;28;20511;-65
2021/08/03 02:17:25;;;;;;;4.10;3.10;;;22.10;99.90;;;;;;5022981;28;20040;-65
2021/08/03 02:19:52;;;;;;;7.68;3.53;;;22.00;99.90;;;;;;5019998;28;20081;-65
2021/08/03 02:22:19;;;;;;;4.10;3.10;;;22.00;99.90;;;;;;5002881;28;20103;-64
2021/08/03 02:24:45;;;;;;;4.80;3.50;;;22.00;99.90;;;;;;5002638;28;20069;-65
2021/08/03 02:27:11;;;;;;;4.93;3.42;;;21.90;99.90;;;;;;5003817;28;20034;-65
2021/08/03 02:36:23;;;;;;;6.43;4.60;;;22.00;99.90;;;;;;4935480;28;20052;-65
2021/08/03 02:39:23;;;;;;;5.78;4.78;;;21.90;99.90;;;;;;5011111;28;20026;-63
2021/08/03 02:41:50;;;;;;;5.57;4.38;;;22.10;99.90;;;;;;4955034;28;20054;-65
2021/08/03 02:44:52;;;;;;;5.10;4.43;;;22.00;99.90;;;;;;5024689;28;20041;-65
2021/08/03 02:47:25;;;;;;;6.20;3.95;;;22.00;99.90;;;;;;4971483;28;20077;-64
2021/08/03 02:49:52;;;;;;;5.97;5.00;;;21.90;99.90;;;;;;5028431;28;20025;-65
2021/08/03 02:52:20;;;;;;;5.95;4.28;;;21.70;99.90;;;;;;5021874;28;20044;-65
2021/08/03 02:54:55;;;;;;;6.70;4.32;;;21.80;99.90;;;;;;5014416;28;20567;-58
2021/08/03 02:57:21;;;;;;;;;;;21.80;99.90;;;;;;5020351;28;20037;-65
2021/08/03 03:00:08;;;;;;;6.95;4.88;;;21.80;99.90;;;;;;5034102;28;20363;-61
2021/08/03 03:02:37;;;;;;;8.40;4.97;;;21.70;99.90;;;;;;5015032;28;20057;-66
2021/08/03 03:05:25;;;;;;;6.95;5.43;;;21.60;99.90;;;;;;5007621;28;20033;-66
2021/08/03 03:11:15;;;;;;;8.65;5.65;;;21.80;99.90;;;;;;4982055;28;20041;-65
2021/08/03 03:13:52;;;;;;;6.68;5.22;;;21.70;99.90;;;;;;4997940;28;20033;-65
2021/08/03 03:16:20;;;;;;;7.47;5.00;;;21.70;99.90;;;;;;5007313;28;20563;-65
2021/08/03 03:18:46;;;;;;;8.27;5.93;;;21.60;99.90;;;;;;5014054;28;20042;-66
2021/08/03 03:21:24;;;;;;;8.45;5.90;;;21.60;99.90;;;;;;5024586;28;20084;-66
2021/08/03 03:23:52;;;;;;;7.75;5.30;;;21.60;99.90;;;;;;5003145;28;20171;-65
2021/08/03 03:26:19;;;;;;;7.72;5.95;;;21.60;99.90;;;;;;5009786;28;20041;-65
2021/08/03 03:28:45;;;;;;;7.95;5.35;;;21.60;99.90;;;;;;5009816;28;20118;-66
2021/08/03 03:31:12;;;;;;;6.55;4.70;;;21.70;99.90;;;;;;5014678;28;20399;-66
2021/08/03 03:37:31;;;;;;;7.68;5.38;;;21.80;99.90;;;;;;4971421;28;20083;-67
2021/08/03 03:39:57;;;;;;;7.88;5.57;;;21.80;99.90;;;;;;4967490;28;20480;-65
2021/08/03 03:42:32;;;;;;;7.22;5.63;;;21.80;99.90;;;;;;5032277;28;20064;-66
2021/08/03 03:45:00;;;;;;;8.50;5.80;;;21.80;99.90;;;;;;5025172;28;20041;-66
2021/08/03 03:47:31;;;;;;;8.18;5.55;;;21.80;99.90;;;;;;5031565;28;20045;-66
2021/08/03 03:50:11;;;;;;;5.90;4.90;;;21.80;99.90;;;;;;5016493;28;20409;-66
2021/08/03 03:52:45;;;;;;;7.28;4.90;;;21.80;99.90;;;;;;5014797;28;20049;-66
2021/08/03 03:55:15;;;;;;;5.10;4.30;;;21.80;99.90;;;;;;5026381;28;20544;-66
2021/08/03 03:57:43;;;;;;;5.07;4.60;;;21.80;99.90;;;;;;5027474;28;20384;-66
2021/08/03 04:00:11;;;;;;;6.15;4.40;;;21.70;99.90;;;;;;5020580;28;20101;-67
2021/08/03 04:02:39;;;;;;;5.80;4.38;;;21.80;99.90;;;;;;5014323;28;20049;-67
2021/08/03 04:05:05;;;;;;;5.47;4.53;;;21.80;99.90;;;;;;5005990;28;20116;-66
2021/08/03 04:14:19;;;;;;;7.47;3.78;;;21.90;99.90;;;;;;4987025;28;20084;-67
2021/08/03 04:16:44;;;;;;;5.70;3.80;;;21.80;99.90;;;;;;5015773;28;20408;-67
2021/08/03 04:19:10;;;;;;;6.15;4.22;;;21.70;99.90;;;;;;5015733;28;20038;-66
2021/08/03 04:21:36;;;;;;;6.15;3.60;;;21.80;99.90;;;;;;5006502;28;20034;-67
2021/08/03 04:24:01;;;;;;;7.75;4.10;;;21.80;99.90;;;;;;4999256;28;20041;-67
2021/08/03 04:26:27;;;;;;;7.10;4.32;;;21.80;99.90;;;;;;5035191;28;20552;-67
2021/08/03 04:28:53;;;;;;;6.65;3.55;;;21.80;99.90;;;;;;5011812;28;20034;-67
2021/08/03 04:31:18;;;;;;;7.88;4.22;;;21.80;99.90;;;;;;5009785;28;20507;-66
2021/08/03 04:33:44;;;;;;;7.45;3.97;;;21.80;99.90;;;;;;5031725;28;20156;-67
2021/08/03 04:36:10;;;;;;;4.90;3.88;;;21.80;99.90;;;;;;5026211;28;20121;-66
2021/08/03 04:38:35;;;;;;;4.75;3.85;;;21.90;99.90;;;;;;5029020;28;20049;-67
2021/08/03 04:41:01;;;;;;;6.32;3.60;;;22.00;99.90;;;;;;5019627;28;20049;-66
2021/08/03 04:43:27;;;;;;;5.75;4.13;;;21.90;99.90;;;;;;5012412;28;20050;-66
2021/08/03 04:45:52;;;;;;;4.78;3.55;;;22.00;99.90;;;;;;5022348;28;20124;-66
2021/08/03 04:48:18;;;;;;;4.47;3.83;;;21.90;99.90;;;;;;5030309;28;20038;-65
2021/08/03 04:50:44;;;;;;;4.63;3.53;;;22.00;99.90;;;;;;5025233;28;20045;-66
2021/08/03 04:53:09;;;;;;;6.55;3.40;;;22.00;99.90;;;;;;5027315;28;20406;-67
2021/08/03 04:55:35;;;;;;;5.20;3.78;;;22.10;99.90;;;;;;5004412;28;21253;-66
2021/08/03 04:58:00;;;;;;;4.53;3.30;;;22.10;99.90;;;;;;5008683;28;20038;-66
2021/08/03 05:00:26;;;;;;;4.13;3.00;;;22.30;99.90;;;;;;5005123;28;20125;-66
2021/08/03 05:06:13;;;;;;;6.68;3.08;;;22.20;99.90;;;;;;4976823;28;20061;-66
2021/08/03 05:08:39;;;;;;;3.05;2.75;;;22.20;99.90;;;;;;5010677;28;20468;-66
2021/08/03 05:11:04;;;;;;;6.35;3.60;;;22.30;99.90;;;;;;5009073;28;20117;-66
2021/08/03 05:13:30;;;;;;;5.95;2.95;;;22.40;99.90;;;;;;5007715;28;20038;-66
2021/08/03 05:15:56;;;;;;;5.32;3.03;;;22.40;99.90;;;;;;5003191;28;20487;-67
2021/08/03 05:18:21;;;;;;;7.07;4.00;;;22.50;99.90;;;;;;5010793;28;20037;-66
2021/08/03 05:20:47;;;;;;;7.88;3.50;;;22.60;99.90;;;;;;5023136;28;20079;-66
2021/08/03 05:23:12;;;;;;;3.90;2.65;;;22.60;99.90;;;;;;5020672;28;20072;-67
2021/08/03 05:25:38;;;;;;;4.13;2.97;;;22.60;99.90;;;;;;5001548;28;20495;-66
2021/08/03 05:28:04;;;;;;;21.38;3.83;;;22.60;99.90;;;;;;5021174;28;20088;-66
2021/08/03 05:30:30;;;;;;;11.68;3.97;;;22.70;99.90;;;;;;5027069;28;20037;-66
2021/08/03 05:32:55;;;;;;;4.88;2.92;;;22.70;99.90;;;;;;5023534;28;20123;-66
2021/08/03 05:35:21;;;;;;;8.18;2.80;;;22.80;99.90;;;;;;5030934;28;20061;-66
2021/08/03 05:37:46;;;;;;;6.90;3.33;;;22.70;99.90;;;;;;5020954;28;20041;-64
2021/08/03 05:40:13;;;;;;;6.03;2.97;;;22.70;99.90;;;;;;5008702;28;20034;-66
2021/08/03 05:42:39;;;;;;;3.60;2.72;;;22.70;99.90;;;;;;5018453;28;20107;-66
2021/08/03 05:45:06;;;;;;;5.25;3.10;;;22.80;99.90;;;;;;5024515;28;20041;-66
2021/08/03 05:47:31;;;;;;;5.60;3.53;;;22.80;99.90;;;;;;5006711;28;20268;-66
2021/08/03 05:49:57;;;;;;;6.20;3.38;;;22.90;99.90;;;;;;5027093;28;20128;-66
2021/08/03 05:52:22;;;;;;;4.00;2.90;;;22.90;99.90;;;;;;5024944;28;20195;-66
2021/08/03 05:54:48;;;;;;;7.97;3.75;;;23.00;99.90;;;;;;5027780;28;20045;-66
2021/08/03 05:57:14;;;;;;;5.63;2.70;;;23.00;99.80;;;;;;5023266;28;20034;-66
2021/08/03 05:59:39;;;;;;;3.55;2.70;;;22.90;99.30;;;;;;5032923;28;20111;-66
2021/08/03 06:02:05;;;;;;;5.10;2.78;;;22.90;99.50;;;;;;5018440;28;20044;-66
2021/08/03 06:04:31;;;;;;;13.82;3.10;;;23.00;99.60;;;;;;5027605;28;20091;-66
2021/08/03 06:06:57;;;;;;;4.68;2.65;;;23.10;99.40;;;;;;5028540;28;20111;-66
2021/08/03 06:09:25;;;;;;;6.07;3.20;;;23.10;99.10;;;;;;5024511;28;20462;-66
2021/08/03 06:11:52;;;;;;;5.72;2.83;;;23.00;99.20;;;;;;5026921;28;20132;-66
2021/08/03 06:14:44;;;;;;;5.18;3.85;;;22.90;99.80;;;;;;5009575;28;20041;-65
2021/08/03 06:17:14;;;;;;;8.82;5.78;;;22.80;99.90;;;;;;5024537;28;20033;-66
2021/08/03 06:19:41;;;;;;;11.88;6.90;;;22.80;99.90;;;;;;5024077;28;20041;-65
2021/08/03 06:22:08;;;;;;;4.43;4.00;;;22.80;99.90;;;;;;5028157;28;20090;-65
2021/08/03 06:24:36;;;;;;;5.93;3.88;;;23.00;99.90;;;;;;5001423;28;20411;-65
2021/08/03 06:27:02;;;;;;;9.35;4.63;;;23.00;99.90;;;;;;5026626;28;20033;-64
2021/08/03 06:29:28;;;;;;;8.18;4.28;;;23.10;99.90;;;;;;5022376;28;20044;-64
2021/08/03 06:31:55;;;;;;;8.23;4.75;;;23.00;99.90;;;;;;5025690;28;20044;-64
2021/08/03 06:34:21;;;;;;;9.45;4.63;;;23.10;99.90;;;;;;5011048;28;20436;-62
2021/08/03 06:36:46;;;;;;;5.45;3.85;;;23.00;99.90;;;;;;5015251;28;20111;-64
2021/08/03 06:39:12;;;;;;;5.45;3.40;;;23.00;99.90;;;;;;5021443;28;20034;-65
2021/08/03 06:41:39;;;;;;;9.23;3.78;;;23.10;99.90;;;;;;5031142;28;20415;-64
2021/08/03 06:44:21;;;;;;;4.38;3.88;;;23.30;99.70;;;;;;5022066;28;20475;-65
2021/08/03 06:46:53;;;;;;;14.20;4.97;;;23.10;99.30;;;;;;5023082;28;20029;-64
2021/08/03 06:49:21;;;;;;;11.43;4.55;;;23.10;99.90;;;;;;5023538;28;20507;-65
2021/08/03 06:51:48;;;;;;;5.20;4.65;;;23.10;99.90;;;;;;5013791;28;20038;-65
2021/08/03 06:54:15;;;;;;;8.68;4.47;;;23.10;99.90;;;;;;5008382;28;20706;-66
2021/08/03 06:56:50;;;;;;;9.30;4.93;;;23.10;99.90;;;;;;5009417;28;20038;-65
2021/08/03 06:59:25;;;;;;;11.27;4.93;;;23.20;99.90;;;;;;5018139;28;20029;-66
2021/08/03 07:02:03;;;;;;;8.13;3.95;;;23.20;99.90;;;;;;5003761;28;20195;-65
2021/08/03 07:04:57;;;;;;;8.57;5.47;;;23.40;99.90;;;;;;5001495;28;20046;-66
2021/08/03 07:07:23;;;;;;;9.80;5.05;;;23.20;99.90;;;;;;4997235;28;20069;-65
2021/08/03 07:09:49;;;;;;;11.52;5.60;;;23.20;99.90;;;;;;5019433;28;20041;-65
2021/08/03 07:12:15;;;;;;;9.60;5.72;;;23.20;99.90;;;;;;5021213;28;20474;-65
2021/08/03 07:14:42;;;;;;;7.30;4.70;;;23.30;99.90;;;;;;5023043;28;20062;-65
2021/08/03 07:17:12;;;;;;;9.07;4.97;;;23.00;99.90;;;;;;5017743;28;20030;-65
2021/08/03 07:19:39;;;;;;;8.38;4.50;;;23.10;99.90;;;;;;5021317;28;20044;-65
2021/08/03 07:22:08;;;;;;;6.57;5.25;;;23.20;99.90;;;;;;5014731;28;20188;-66
2021/08/03 07:24:34;;;;;;;8.13;4.97;;;23.00;99.90;;;;;;5019824;28;20140;-65
2021/08/03 07:27:00;;;;;;;6.10;4.55;;;23.20;99.90;;;;;;5017659;28;20503;-65
2021/08/03 07:29:26;;;;;;;8.50;5.78;;;23.40;99.90;;;;;;5019892;28;20045;-66
2021/08/03 07:31:52;;;;;;;11.73;5.78;;;23.40;99.90;;;;;;5016552;28;20044;-65
2021/08/03 07:34:18;;;;;;;12.02;7.13;;;23.40;99.90;;;;;;5024885;28;20029;-65
2021/08/03 07:36:44;;;;;;;8.98;6.40;;;23.40;99.90;;;;;;5016299;28;20037;-66
2021/08/03 07:39:10;;;;;;;11.68;6.18;;;23.40;99.90;;;;;;5019643;28;20095;-66
2021/08/03 07:41:37;;;;;;;12.63;5.70;;;23.20;99.90;;;;;;5015694;28;20045;-66
2021/08/03 07:44:03;;;;;;;12.80;5.90;;;23.20;99.90;;;;;;5020224;28;20068;-66
2021/08/03 07:46:30;;;;;;;7.28;5.93;;;23.20;99.90;;;;;;5014701;28;20120;-66
2021/08/03 07:48:57;;;;;;;10.88;5.75;;;23.20;99.90;;;;;;5024321;28;20037;-65
2021/08/03 07:51:24;;;;;;;9.77;5.60;;;23.30;99.90;;;;;;5009233;28;20037;-66
2021/08/03 07:53:49;;;;;;;7.97;6.20;;;23.40;99.90;;;;;;5010300;28;20046;-65
2021/08/03 07:56:15;;;;;;;7.97;6.18;;;23.30;99.90;;;;;;5013619;28;20521;-66
2021/08/03 07:58:41;;;;;;;9.38;6.70;;;23.40;99.90;;;;;;5022319;28;20095;-65
2021/08/03 08:01:07;;;;;;;9.38;6.30;;;23.30;99.90;;;;;;4999119;28;20116;-66
2021/08/03 08:03:34;;;;;;;8.18;5.75;;;23.40;99.90;;;;;;5001724;28;20160;-65
2021/08/03 08:06:01;;;;;;;9.82;6.25;;;23.50;99.90;;;;;;4999662;28;20050;-66
2021/08/03 08:08:27;;;;;;;10.82;6.88;;;23.70;99.90;;;;;;5001676;28;20034;-66
2021/08/03 08:10:52;;;;;;;9.32;6.38;;;23.70;99.90;;;;;;5010591;28;20115;-66
2021/08/03 08:13:18;;;;;;;8.45;6.22;;;23.80;99.90;;;;;;5003223;28;20565;-65
2021/08/03 08:15:44;;;;;;;8.55;6.22;;;23.70;99.90;;;;;;5025535;28;20045;-66
2021/08/03 08:18:10;;;;;;;14.75;11.93;;;23.80;99.90;;;;;;5021029;28;20056;-66
2021/08/03 08:20:40;;;;;;;6.47;5.70;;;23.90;99.90;;;;;;5011699;28;20030;-66
2021/08/03 08:23:06;;;;;;;10.05;6.60;;;24.00;99.90;;;;;;5002416;28;20076;-66
2021/08/03 08:25:31;;;;;;;14.07;7.28;;;24.00;99.90;;;;;;5008772;28;20034;-66
2021/08/03 08:27:57;;;;;;;10.18;5.70;;;24.10;99.90;;;;;;5001922;28;20450;-65
2021/08/03 08:30:23;;;;;;;9.38;6.22;;;24.10;99.90;;;;;;5013041;28;20038;-65
2021/08/03 08:32:48;;;;;;;9.23;5.90;;;24.10;99.90;;;;;;5003997;28;20773;-66
2021/08/03 08:35:14;;;;;;;11.95;6.63;;;24.30;99.90;;;;;;5011124;28;20041;-67
2021/08/03 08:37:40;;;;;;;11.77;5.97;;;24.30;99.20;;;;;;5024203;28;20041;-67
2021/08/03 08:40:07;;;;;;;8.68;6.63;;;24.30;98.60;;;;;;5022332;28;20051;-66
2021/08/03 08:42:33;;;;;;;11.85;7.70;;;24.30;98.40;;;;;;5025202;28;20096;-67
2021/08/03 08:45:00;;;;;;;7.18;5.60;;;24.30;98.50;;;;;;5021448;28;20514;-67
2021/08/03 08:47:26;;;;;;;17.05;6.72;;;24.40;98.80;;;;;;5025688;28;20121;-66
2021/08/03 08:49:55;;;;;;;8.30;5.95;;;24.60;98.50;;;;;;5012356;28;20065;-66
2021/08/03 08:52:21;;;;;;;6.65;5.95;;;24.60;98.50;;;;;;5006464;28;20038;-66
2021/08/03 08:54:47;;;;;;;9.63;6.70;;;24.70;97.60;;;;;;5021307;28;20039;-67
2021/08/03 08:57:13;;;;;;;10.88;6.65;;;24.60;97.70;;;;;;5026889;28;20116;-67
2021/08/03 08:59:39;;;;;;;8.88;6.45;;;24.70;97.40;;;;;;5013425;28;20519;-67
2021/08/03 09:02:05;;;;;;;10.18;5.97;;;24.80;97.20;;;;;;5018098;28;20056;-67
2021/08/03 09:04:30;;;;;;;7.70;5.38;;;25.10;96.60;;;;;;5018496;28;20070;-67
2021/08/03 09:07:06;;;;;;;9.60;6.18;;;25.30;96.00;;;;;;5004243;28;20636;-66
2021/08/03 09:09:44;;;;;;;12.68;6.57;;;25.50;95.00;;;;;;5021495;28;20041;-67
2021/08/03 09:12:11;;;;;;;9.60;6.22;;;25.60;94.80;;;;;;5026553;28;20049;-67
2021/08/03 09:14:41;;;;;;;10.18;5.50;;;25.70;94.50;;;;;;5021419;28;20037;-66
2021/08/03 09:17:08;;;;;;;12.23;7.25;;;25.90;93.70;;;;;;5019609;28;20518;-66
2021/08/03 09:19:41;;;;;;;8.18;6.88;;;26.00;94.00;;;;;;5014129;28;20030;-67
2021/08/03 09:22:18;;;;;;;12.13;7.18;;;26.10;92.70;;;;;;5025357;28;20033;-67
2021/08/03 09:24:49;;;;;;;9.13;6.85;;;26.10;93.50;;;;;;5002353;28;20077;-67
2021/08/03 09:27:37;;;;;;;13.60;8.57;;;26.20;92.90;;;;;;5021850;28;20033;-67
2021/08/03 09:30:07;;;;;;;10.35;7.63;;;26.10;92.70;;;;;;4972758;28;20483;-68
2021/08/03 09:32:35;;;;;;;21.42;8.43;;;26.20;93.10;;;;;;5001809;28;20041;-67
2021/08/03 09:35:12;;;;;;;13.65;7.25;;;26.20;93.10;;;;;;5016299;28;20044;-67
2021/08/03 09:37:39;;;;;;;11.10;7.05;;;26.30;92.40;;;;;;5021269;28;21989;-68
2021/08/03 09:40:17;;;;;;;9.32;7.60;;;26.20;93.30;;;;;;5018265;28;20060;-67
2021/08/03 09:42:42;;;;;;;8.50;7.30;;;26.10;92.70;;;;;;4997937;28;20508;-67
2021/08/03 09:45:09;;;;;;;10.60;7.60;;;26.10;92.70;;;;;;5002352;28;20053;-67
2021/08/03 09:47:36;;;;;;;23.33;7.80;;;26.00;93.10;;;;;;5000795;28;20124;-68
2021/08/03 09:50:06;;;;;;;12.77;8.30;;;26.10;93.10;;;;;;5005573;28;20148;-67
2021/08/03 09:52:35;;;;;;;10.60;7.18;;;26.20;93.30;;;;;;5020505;28;20041;-68
2021/08/03 09:55:15;;;;;;;14.75;7.65;;;26.40;93.30;;;;;;5025477;28;20499;-68
2021/08/03 09:57:42;;;;;;;12.90;7.95;;;26.40;92.40;;;;;;5019985;28;20065;-68
2021/08/03 10:00:27;;;;;;;11.25;8.45;;;26.20;92.70;;;;;;5024239;28;20423;-68
2021/08/03 10:02:53;;;;;;;9.63;8.48;;;26.10;92.60;;;;;;5001655;28;20053;-67
2021/08/03 10:05:20;;;;;;;13.55;7.32;;;26.00;92.70;;;;;;4996464;28;20045;-67
2021/08/03 10:07:46;;;;;;;11.25;7.40;;;26.00;93.20;;;;;;5007691;28;20365;-68
2021/08/03 10:10:13;;;;;;;8.82;7.57;;;26.10;93.30;;;;;;5027264;28;20039;-68
2021/08/03 10:12:39;;;;;;;8.18;7.47;;;26.20;92.90;;;;;;5024410;28;20103;-68
2021/08/03 10:15:08;;;;;;;8.35;6.40;;;26.20;92.20;;;;;;4993907;28;20037;-68
2021/08/03 10:17:34;;;;;;;8.27;6.30;;;26.30;91.50;;;;;;5009953;28;20037;-68
2021/08/03 10:20:00;;;;;;;14.13;6.63;;;26.40;91.70;;;;;;5027936;28;20045;-68
2021/08/03 10:22:30;;;;;;;8.27;5.45;;;26.40;92.10;;;;;;5015297;28;20042;-68
2021/08/03 10:25:14;;;;;;;7.18;6.45;;;26.50;92.50;;;;;;5019355;28;20055;-68
2021/08/03 10:27:42;;;;;;;;;;;26.50;91.40;;;;;;5002172;28;20048;-68
2021/08/03 10:30:09;;;;;;;9.15;6.40;;;26.50;91.20;;;;;;5003565;28;19917;-68
2021/08/03 10:32:38;;;;;;;7.70;5.80;;;26.70;90.20;;;;;;5002144;28;20103;-69
2021/08/03 10:35:04;;;;;;;8.93;5.38;;;26.90;90.30;;;;;;5009665;28;20041;-68
2021/08/03 10:38:04;;;;;;;5.40;4.32;;;27.00;88.60;;;;;;5009487;28;20077;-68
2021/08/03 10:40:48;;;;;;;8.25;5.50;;;27.20;87.60;;;;;;4967337;28;20100;-68
2021/08/03 10:43:24;;;;;;;10.82;7.18;;;27.40;84.30;;;;;;4996961;28;20045;-69
2021/08/03 10:46:10;;;;;;;7.78;6.47;;;27.50;83.80;;;;;;5002467;28;20042;-68
2021/08/03 10:48:38;;;;;;;10.45;5.70;;;27.50;84.40;;;;;;4996747;28;20072;-68
2021/08/03 10:51:13;;;;;;;7.38;6.15;;;27.30;85.20;;;;;;5006577;28;20073;-68
2021/08/03 10:54:00;;;;;;;7.65;6.25;;;27.30;84.60;;;;;;4998415;28;20038;-68
2021/08/03 10:56:27;;;;;;;8.85;6.82;;;27.30;85.60;;;;;;4956019;28;20046;-68
2021/08/03 10:59:30;;;;;;;7.85;5.95;;;27.20;85.90;;;;;;4981491;28;20046;-68
2021/08/03 11:01:56;;;;;;;9.65;5.43;;;27.20;83.40;;;;;;4986287;28;20041;-68
2021/08/03 11:04:40;;;;;;;7.75;6.63;;;27.10;84.50;;;;;;5016613;28;20144;-69
2021/08/03 11:07:24;;;;;;;;;;;27.00;85.30;;;;;;5022059;28;20602;-69
2021/08/03 11:09:51;;;;;;;9.95;6.72;;;27.00;86.40;;;;;;5016884;28;20004;-70
2021/08/03 11:12:38;;;;;;;8.60;6.30;;;27.20;85.80;;;;;;5021693;28;20041;-69
2021/08/03 11:15:21;;;;;;;12.50;6.60;;;27.40;83.10;;;;;;4964544;28;20025;-69
2021/08/03 11:17:51;;;;;;;7.35;5.13;;;27.40;82.00;;;;;;5019983;28;20044;-70
2021/08/03 11:20:35;;;;;;;8.80;6.43;;;27.70;83.40;;;;;;5000448;28;20041;-69
2021/08/03 11:23:02;;;;;;;8.32;6.15;;;27.80;79.70;;;;;;5018548;28;20111;-69
2021/08/03 11:25:29;;;;;;;6.47;5.50;;;28.10;79.00;;;;;;5011815;28;20077;-69
2021/08/03 11:28:05;;;;;;;7.88;5.57;;;28.60;77.70;;;;;;5024108;28;20068;-69
2021/08/03 11:30:31;;;;;;;7.38;5.75;;;29.00;73.00;;;;;;4971096;28;20069;-69
2021/08/03 11:32:57;;;;;;;8.82;5.82;;;29.20;74.20;;;;;;5000809;28;20164;-68
2021/08/03 11:35:29;;;;;;;6.75;6.15;;;30.00;71.90;;;;;;4995303;28;20549;-69
2021/08/03 11:37:55;;;;;;;12.70;5.75;;;30.10;68.90;;;;;;4985406;28;20125;-69
2021/08/03 11:40:22;;;;;;;6.00;5.05;;;30.30;68.50;;;;;;4996471;28;20148;-70
2021/08/03 11:42:49;;;;;;;6.20;4.70;;;30.30;65.60;;;;;;5009605;28;20460;-70
2021/08/03 11:45:22;;;;;;;9.73;4.18;;;30.40;64.50;;;;;;4998094;28;20046;-70
2021/08/03 11:47:51;;;;;;;7.57;3.45;;;30.40;55.10;;;;;;5004935;28;20112;-71
2021/08/03 11:50:41;;;;;;;6.85;2.78;;;30.30;57.50;;;;;;5017803;28;20056;-70
2021/08/03 11:53:07;;;;;;;6.75;2.80;;;30.70;50.20;;;;;;4971634;28;20029;-70
2021/08/03 11:55:36;;;;;;;4.38;3.00;;;31.20;52.00;;;;;;5025005;28;20038;-69
2021/08/03 11:58:02;;;;;;;5.10;2.90;;;31.20;52.40;;;;;;5023811;28;20404;-70
2021/08/03 12:00:28;;;;;;;3.85;3.22;;;30.50;53.80;;;;;;5007272;28;20038;-69
2021/08/03 12:02:56;;;;;;;6.90;4.45;;;30.30;56.20;;;;;;5026708;28;20037;-70
2021/08/03 12:05:34;;;;;;;7.20;4.70;;;30.10;57.50;;;;;;5021682;28;20424;-69
2021/08/03 12:08:13;;;;;;;14.80;4.47;;;29.70;58.10;;;;;;5024715;28;20053;-69
2021/08/03 12:10:42;;;;;;;9.77;4.93;;;29.90;57.60;;;;;;5029206;28;20030;-69
2021/08/03 12:13:10;;;;;;;6.18;4.07;;;29.50;59.10;;;;;;5026057;28;20049;-69
2021/08/03 12:15:50;;;;;;;4.57;3.25;;;29.60;58.30;;;;;;5029349;28;20053;-70
2021/08/03 12:18:17;;;;;;;4.78;3.85;;;29.10;57.50;;;;;;5020662;28;20045;-69
2021/08/03 12:20:57;;;;;;;8.27;3.55;;;28.80;59.70;;;;;;5030356;28;20058;-69
2021/08/03 12:23:27;;;;;;;5.30;3.13;;;28.80;58.10;;;;;;5023871;28;20041;-69
2021/08/03 12:26:27;;;;;;;11.57;3.72;;;28.90;59.70;;;;;;5010428;28;20391;-70
2021/08/03 12:29:37;;;;;;;4.40;2.83;;;29.00;55.90;;;;;;4983905;28;20090;-69
2021/08/03 12:32:05;;;;;;;4.00;2.78;;;29.00;54.20;;;;;;4959057;28;20122;-69
2021/08/03 12:34:38;;;;;;;4.93;2.30;;;29.00;57.20;;;;;;5027151;28;20128;-69
2021/08/03 12:37:06;;;;;;;19.33;3.65;;;29.10;54.60;;;;;;5029966;28;20037;-69
2021/08/03 12:39:44;;;;;;;8.60;3.15;;;28.90;56.20;;;;;;5017882;28;20136;-69
2021/08/03 12:44:54;;;;;;;5.55;2.83;;;30.50;47.10;;;;;;5026554;28;20379;-70
2021/08/03 12:47:23;;;;;;;6.65;3.08;;;31.90;45.90;;;;;;5028087;28;20471;-70
2021/08/03 12:49:51;;;;;;;5.55;3.17;;;32.40;53.60;;;;;;5020179;28;20049;-70
2021/08/03 12:52:23;;;;;;;3.80;2.90;;;32.40;46.10;;;;;;5026080;28;20489;-70
2021/08/03 12:54:57;;;;;;;5.28;3.05;;;31.90;44.20;;;;;;5026033;28;20037;-70
2021/08/03 12:57:40;;;;;;;3.67;3.30;;;31.20;45.20;;;;;;5004687;28;20092;-70
2021/08/03 13:00:26;;;;;;;6.10;3.42;;;31.20;46.60;;;;;;4979715;28;20164;-69
2021/08/03 13:02:51;;;;;;;8.85;3.83;;;31.70;45.80;;;;;;5009325;28;20479;-70
2021/08/03 13:05:44;;;;;;;5.80;3.28;;;32.10;46.60;;;;;;5013376;28;20042;-70
2021/08/03 13:08:15;;;;;;;3.72;3.00;;;31.10;44.20;;;;;;4969279;28;20081;-69
2021/08/03 13:10:41;;;;;;;3.67;2.38;;;31.30;46.00;;;;;;5006234;28;20038;-69
2021/08/03 13:13:06;;;;;;;5.75;2.80;;;32.00;45.20;;;;;;5010039;28;20064;-69
2021/08/03 13:15:33;;;;;;;7.47;2.53;;;31.80;45.20;;;;;;5017642;28;20049;-71
2021/08/03 13:17:59;;;;;;;5.72;3.25;;;31.20;45.70;;;;;;5029765;28;20076;-70
2021/08/03 13:20:25;;;;;;;3.55;2.47;;;30.60;46.40;;;;;;5023411;28;20061;-70
2021/08/03 13:22:50;;;;;;;3.10;2.80;;;30.40;47.70;;;;;;5027917;28;20081;-69
2021/08/03 13:25:16;;;;;;;3.53;3.10;;;30.00;47.10;;;;;;5019572;28;20069;-69
2021/08/03 13:27:41;;;;;;;3.10;2.63;;;29.40;49.30;;;;;;5021676;28;23131;-69
2021/08/03 13:30:09;;;;;;;7.32;3.30;;;29.30;50.90;;;;;;5012001;28;20404;-68
2021/08/03 13:32:35;;;;;;;4.32;2.38;;;29.20;59.10;;;;;;5021892;28;20038;-69
2021/08/03 13:35:00;;;;;;;6.75;2.72;;;29.00;51.30;;;;;;5020899;28;20037;-69
2021/08/03 13:37:26;;;;;;;3.85;2.55;;;28.90;51.40;;;;;;5024733;28;20029;-69
2021/08/03 13:39:52;;;;;;;6.72;2.72;;;28.70;52.60;;;;;;5020536;28;20041;-70
2021/08/03 13:42:22;;;;;;;3.95;2.42;;;28.40;53.10;;;;;;5027805;28;20045;-69
2021/08/03 13:44:48;;;;;;;5.32;2.70;;;28.40;52.40;;;;;;5028568;28;20029;-69